createdAt,value
2023-02-22T00:00:56.339Z,98401.19
2023-02-22T00:03:28.811Z,98401.19
2023-02-22T00:06:04.102Z,98411.84
2023-02-22T00:08:34.305Z,98402.81
2023-02-22T00:11:09.958Z,98402.00
2023-02-22T00:13:38.361Z,98408.13
2023-02-22T00:16:06.023Z,98401.19
2023-02-22T00:18:33.661Z,98402.19
2023-02-22T00:21:01.418Z,98403.84
2023-02-22T00:23:30.701Z,98410.19
2023-02-22T00:25:59.735Z,98412.03
2023-02-22T00:28:27.530Z,98411.00
2023-02-22T00:30:54.900Z,98407.50
2023-02-22T00:33:23.473Z,98414.50
2023-02-22T00:35:50.864Z,98408.13
2023-02-22T00:38:19.385Z,98410.81
2023-02-22T00:40:46.637Z,98417.16
2023-02-22T00:43:14.808Z,98418.78
2023-02-22T00:45:42.390Z,98415.50
2023-02-22T00:48:10.354Z,98415.50
2023-02-22T00:50:37.722Z,98413.88
2023-02-22T00:53:09.550Z,98413.88
2023-02-22T00:55:37.843Z,98412.22
2023-02-22T00:58:06.880Z,98425.34
2023-02-22T01:00:37.673Z,98419.19
2023-02-22T01:03:10.535Z,98413.25
2023-02-22T01:05:40.899Z,98412.22
2023-02-22T01:08:10.320Z,98417.53
2023-02-22T01:10:39.436Z,98420.38
2023-02-22T01:13:12.459Z,98421.22
2023-02-22T01:15:42.672Z,98422.88
2023-02-22T01:18:12.559Z,98421.22
2023-02-22T01:20:40.067Z,98417.53
2023-02-22T01:23:07.787Z,98416.72
2023-02-22T01:25:36.041Z,98427.38
2023-02-22T01:28:06.131Z,98414.88
2023-02-22T01:30:35.360Z,98413.44
2023-02-22T01:33:05.234Z,98408.94
2023-02-22T01:35:34.903Z,98407.28
2023-02-22T01:38:02.394Z,98415.91
2023-02-22T01:40:37.743Z,98414.25
2023-02-22T01:43:16.050Z,98418.75
2023-02-22T01:46:05.690Z,98411.81
2023-02-22T01:48:44.483Z,98408.09
2023-02-22T01:51:26.797Z,98412.63
2023-02-22T01:54:01.641Z,98417.94
2023-02-22T01:56:32.481Z,98418.13
2023-02-22T01:59:06.700Z,98410.97
2023-02-22T02:01:36.103Z,98410.16
2023-02-22T02:04:15.524Z,98413.84
2023-02-22T02:06:43.679Z,98410.16
2023-02-22T02:09:29.102Z,98403.19
2023-02-22T02:12:04.998Z,98418.31
2023-02-22T02:14:32.864Z,98413.00
2023-02-22T02:17:03.627Z,98409.72
2023-02-22T02:19:56.074Z,98414.84
2023-02-22T02:22:50.585Z,98418.31
2023-02-22T02:25:37.771Z,98413.00
2023-02-22T02:28:39.236Z,98412.38
2023-02-22T02:31:21.897Z,98413.41
2023-02-22T02:33:57.940Z,98417.91
2023-02-22T02:36:40.559Z,98418.31
2023-02-22T02:39:20.404Z,98418.72
2023-02-22T02:41:50.948Z,98415.88
2023-02-22T02:44:46.132Z,98417.91
2023-02-22T02:47:21.755Z,98419.72
2023-02-22T02:50:01.826Z,98424.88
2023-02-22T02:52:33.086Z,98423.25
2023-02-22T02:55:02.417Z,98427.72
2023-02-22T02:57:29.911Z,98430.38
2023-02-22T02:59:57.065Z,98422.38
2023-02-22T03:02:57.836Z,98416.47
2023-02-22T03:06:03.198Z,98424.47
2023-02-22T03:09:08.787Z,98420.75
2023-02-22T03:12:10.182Z,98432.22
2023-02-22T03:14:42.706Z,98432.44
2023-02-22T03:17:53.158Z,98424.47
2023-02-22T03:20:32.575Z,98428.13
2023-02-22T03:23:32.633Z,98428.94
2023-02-22T03:26:05.683Z,98428.94
2023-02-22T03:28:35.839Z,98425.47
2023-02-22T03:31:10.863Z,98425.66
2023-02-22T03:33:54.380Z,98431.81
2023-02-22T03:36:30.679Z,98426.50
2023-02-22T03:39:01.272Z,98431.81
2023-02-22T03:41:31.228Z,98439.81
2023-02-22T03:44:21.992Z,98438.75
2023-02-22T03:46:51.343Z,98437.13
2023-02-22T03:49:56.752Z,98437.31
2023-02-22T03:52:24.452Z,98433.84
2023-02-22T03:54:53.621Z,98433.84
2023-02-22T03:57:24.756Z,98440.16
2023-02-22T03:59:53.103Z,98433.00
2023-02-22T04:02:20.812Z,98444.50
2023-02-22T04:04:48.377Z,98438.31
2023-02-22T04:07:16.490Z,98440.97
2023-02-22T04:09:45.765Z,98442.84
2023-02-22T04:12:13.310Z,98443.66
2023-02-22T04:14:41.942Z,98433.84
2023-02-22T04:17:10.439Z,98440.97
2023-02-22T04:19:37.658Z,98439.16
2023-02-22T04:22:05.315Z,98437.50
2023-02-22T04:24:32.681Z,98437.50
2023-02-22T04:27:00.182Z,98442.84
2023-02-22T04:29:27.463Z,98437.50
2023-02-22T04:31:55.185Z,98432.59
2023-02-22T04:34:22.461Z,98438.72
2023-02-22T04:36:50.012Z,98428.91
2023-02-22T04:39:17.262Z,98437.09
2023-02-22T04:41:44.874Z,98431.56
2023-02-22T04:44:12.212Z,98434.22
2023-02-22T04:46:39.756Z,98432.59
2023-02-22T04:49:06.948Z,98431.56
2023-02-22T04:51:35.888Z,98432.59
2023-02-22T04:54:03.769Z,98432.59
2023-02-22T04:56:31.195Z,98435.25
2023-02-22T04:58:58.781Z,98432.59
2023-02-22T05:01:30.359Z,98432.59
2023-02-22T05:03:57.659Z,98436.25
2023-02-22T05:06:25.215Z,98436.25
2023-02-22T05:08:53.193Z,98429.31
2023-02-22T05:11:20.675Z,98434.63
2023-02-22T05:13:47.992Z,98430.13
2023-02-22T05:16:16.263Z,98432.59
2023-02-22T05:18:43.537Z,98445.28
2023-02-22T05:21:11.378Z,98440.75
2023-02-22T05:23:38.567Z,98444.47
2023-02-22T05:26:07.086Z,98445.28
2023-02-22T05:28:34.267Z,98447.31
2023-02-22T05:31:01.810Z,98450.59
2023-02-22T05:33:29.111Z,98462.22
2023-02-22T05:35:56.697Z,98456.28
2023-02-22T05:38:23.857Z,98460.97
2023-02-22T05:40:51.698Z,98456.69
2023-02-22T05:43:19.083Z,98455.06
2023-02-22T05:45:46.588Z,98458.72
2023-02-22T05:48:13.801Z,98461.56
2023-02-22T05:50:41.228Z,98468.53
2023-02-22T05:53:08.478Z,98470.38
2023-02-22T05:55:36.713Z,98474.06
2023-02-22T05:58:05.770Z,98472.41
2023-02-22T06:00:33.473Z,98471.78
2023-02-22T06:03:07.828Z,98475.09
2023-02-22T06:05:37.570Z,98475.09
2023-02-22T06:08:06.447Z,98482.03
2023-02-22T06:10:34.118Z,98475.09
2023-02-22T06:13:02.179Z,98482.03
2023-02-22T06:15:30.085Z,98491.03
2023-02-22T06:17:58.665Z,98485.72
2023-02-22T06:20:28.518Z,98498.41
2023-02-22T06:22:59.399Z,98498.41
2023-02-22T06:25:31.292Z,98503.72
2023-02-22T06:28:00.552Z,98509.03
2023-02-22T06:30:29.037Z,98511.69
2023-02-22T06:32:56.559Z,98512.69
2023-02-22T06:35:24.050Z,98511.69
2023-02-22T06:37:51.376Z,98514.38
2023-02-22T06:40:19.302Z,98519.69
2023-02-22T06:42:49.168Z,98519.69
2023-02-22T06:45:18.304Z,98525.00
2023-02-22T06:47:46.265Z,98525.00
2023-02-22T06:50:19.321Z,98527.66
2023-02-22T06:52:47.894Z,98527.03
2023-02-22T06:55:26.844Z,98521.72
2023-02-22T06:57:54.374Z,98530.69
2023-02-22T07:00:24.931Z,98531.53
2023-02-22T07:02:53.065Z,98532.34
2023-02-22T07:05:22.835Z,98540.97
2023-02-22T07:07:52.593Z,98532.34
2023-02-22T07:10:22.298Z,98536.00
2023-02-22T07:12:49.539Z,98539.31
2023-02-22T07:15:18.175Z,98539.53
2023-02-22T07:17:45.473Z,98543.00
2023-02-22T07:20:13.044Z,98543.00
2023-02-22T07:22:40.294Z,98551.97
2023-02-22T07:25:10.057Z,98540.97
2023-02-22T07:27:44.110Z,98544.44
2023-02-22T07:30:34.000Z,98538.94
2023-02-22T07:33:04.141Z,98537.28
2023-02-22T07:35:53.090Z,98549.59
2023-02-22T07:38:21.137Z,98542.59
2023-02-22T07:40:48.646Z,98549.59
2023-02-22T07:43:25.197Z,98551.22
2023-02-22T07:45:55.434Z,98549.38
2023-02-22T07:48:25.215Z,98550.41
2023-02-22T07:50:53.196Z,98545.88
2023-02-22T07:53:28.650Z,98545.88
2023-02-22T07:55:58.361Z,98544.91
2023-02-22T07:58:27.980Z,98544.91
2023-02-22T08:00:55.648Z,98547.56
2023-02-22T08:03:24.860Z,98554.69
2023-02-22T08:05:56.295Z,98547.56
2023-02-22T08:08:23.697Z,98548.19
2023-02-22T08:10:52.346Z,98553.50
2023-02-22T08:13:22.082Z,98544.69
2023-02-22T08:15:52.905Z,98546.53
2023-02-22T08:18:21.658Z,98556.16
2023-02-22T08:20:51.880Z,98550.00
2023-02-22T08:23:21.199Z,98553.50
2023-02-22T08:25:48.708Z,98552.47
2023-02-22T08:28:20.292Z,98552.47
2023-02-22T08:30:48.081Z,98547.16
2023-02-22T08:33:19.322Z,98551.66
2023-02-22T08:35:51.843Z,98548.78
2023-02-22T08:38:26.972Z,98551.44
2023-02-22T08:40:54.692Z,98552.09
2023-02-22T08:43:23.083Z,98554.09
2023-02-22T08:45:51.679Z,98560.06
2023-02-22T08:48:19.811Z,98559.44
2023-02-22T08:50:47.342Z,98565.59
2023-02-22T08:53:16.202Z,98568.03
2023-02-22T08:55:44.844Z,98563.56
2023-02-22T08:58:12.328Z,98565.38
2023-02-22T09:00:41.221Z,98564.56
2023-02-22T09:03:13.920Z,98567.03
2023-02-22T09:05:43.409Z,98566.22
2023-02-22T09:08:11.963Z,98564.38
2023-02-22T09:10:40.549Z,98559.88
2023-02-22T09:13:07.908Z,98566.03
2023-02-22T09:15:39.651Z,98569.31
2023-02-22T09:18:09.385Z,98568.69
2023-02-22T09:20:37.202Z,98574.00
2023-02-22T09:23:06.290Z,98569.53
2023-02-22T09:25:34.271Z,98572.19
2023-02-22T09:28:01.845Z,98571.34
2023-02-22T09:30:33.007Z,98573.00
2023-02-22T09:33:06.372Z,98570.34
2023-02-22T09:35:36.251Z,98565.84
2023-02-22T09:38:06.381Z,98564.00
2023-02-22T09:40:41.106Z,98574.63
2023-02-22T09:43:33.810Z,98568.31
2023-02-22T09:46:20.639Z,98565.66
2023-02-22T09:49:14.881Z,98562.78
2023-02-22T09:51:52.583Z,98560.13
2023-02-22T09:54:29.131Z,98556.63
2023-02-22T09:57:00.948Z,98559.31
2023-02-22T09:59:35.294Z,98562.78
2023-02-22T10:02:22.126Z,98555.81
2023-02-22T10:05:00.403Z,98553.16
2023-02-22T10:07:37.044Z,98562.59
2023-02-22T10:10:06.459Z,98554.59
2023-02-22T10:12:48.204Z,98552.97
2023-02-22T10:15:37.100Z,98554.59
2023-02-22T10:18:32.772Z,98550.31
2023-02-22T10:21:09.501Z,98550.09
2023-02-22T10:23:48.260Z,98559.75
2023-02-22T10:26:21.117Z,98550.94
2023-02-22T10:29:02.435Z,98551.75
2023-02-22T10:31:37.241Z,98553.41
2023-02-22T10:34:33.364Z,98553.59
2023-02-22T10:37:08.237Z,98554.59
2023-02-22T10:39:39.886Z,98550.09
2023-02-22T10:42:09.248Z,98550.09
2023-02-22T10:44:38.643Z,98543.97
2023-02-22T10:47:10.619Z,98546.63
2023-02-22T10:49:46.117Z,98546.44
2023-02-22T10:52:22.212Z,98541.94
2023-02-22T10:54:51.842Z,98545.63
2023-02-22T10:57:26.527Z,98550.94
2023-02-22T10:59:57.072Z,98542.97
2023-02-22T11:02:29.449Z,98541.13
2023-02-22T11:05:00.485Z,98540.31
2023-02-22T11:07:31.740Z,98537.44
2023-02-22T11:10:11.032Z,98547.25
2023-02-22T11:12:42.343Z,98538.28
2023-02-22T11:15:29.407Z,98537.44
2023-02-22T11:18:01.368Z,98532.94
2023-02-22T11:20:35.302Z,98528.63
2023-02-22T11:23:04.603Z,98525.97
2023-02-22T11:25:35.163Z,98522.31
2023-02-22T11:28:17.995Z,98537.44
2023-02-22T11:30:50.308Z,98532.09
2023-02-22T11:33:23.852Z,98532.94
2023-02-22T11:35:58.121Z,98527.63
2023-02-22T11:38:53.223Z,98529.25
2023-02-22T11:41:27.910Z,98519.63
2023-02-22T11:44:13.205Z,98531.09
2023-02-22T11:46:42.804Z,98527.63
2023-02-22T11:49:12.952Z,98529.44
2023-02-22T11:52:14.619Z,98525.97
2023-02-22T11:55:32.727Z,98531.28
2023-02-22T11:58:20.948Z,98527.63
2023-02-22T12:01:17.506Z,98522.31
2023-02-22T12:03:53.808Z,98521.28
2023-02-22T12:06:29.199Z,98523.13
2023-02-22T12:09:16.736Z,98521.28
2023-02-22T12:12:06.517Z,98521.28
2023-02-22T12:14:44.116Z,98507.97
2023-02-22T12:17:43.673Z,98514.09
2023-02-22T12:20:25.021Z,98512.47
2023-02-22T12:23:01.094Z,98516.97
2023-02-22T12:25:33.634Z,98511.66
2023-02-22T12:28:24.197Z,98511.66
2023-02-22T12:31:03.604Z,98509.00
2023-02-22T12:33:42.542Z,98511.66
2023-02-22T12:36:15.860Z,98516.97
2023-02-22T12:38:49.064Z,98516.97
2023-02-22T12:41:42.321Z,98510.00
2023-02-22T12:44:24.857Z,98513.47
2023-02-22T12:46:55.002Z,98511.66
2023-02-22T12:49:43.404Z,98506.34
2023-02-22T12:52:21.651Z,98513.28
2023-02-22T12:55:18.654Z,98512.47
2023-02-22T12:57:57.136Z,98504.66
2023-02-22T13:00:41.631Z,98507.34
2023-02-22T13:03:15.074Z,98502.00
2023-02-22T13:05:49.441Z,98496.88
2023-02-22T13:08:26.571Z,98513.06
2023-02-22T13:11:36.157Z,98499.75
2023-02-22T13:14:25.163Z,98498.09
2023-02-22T13:17:21.043Z,98499.75
2023-02-22T13:20:14.228Z,98499.75
2023-02-22T13:22:49.619Z,98505.06
2023-02-22T13:25:41.163Z,98498.09
2023-02-22T13:28:38.645Z,98496.47
2023-02-22T13:31:26.564Z,98492.97
2023-02-22T13:33:53.870Z,98499.13
2023-02-22T13:36:35.078Z,98497.47
2023-02-22T13:39:54.641Z,98492.13
2023-02-22T13:42:57.540Z,98493.78
2023-02-22T13:45:44.096Z,98496.66
2023-02-22T13:48:15.618Z,98497.47
2023-02-22T13:50:42.889Z,98494.78
2023-02-22T13:53:25.864Z,98493.97
2023-02-22T13:55:58.204Z,98491.50
2023-02-22T13:58:26.427Z,98498.50
2023-02-22T14:00:56.708Z,98498.50
2023-02-22T14:03:36.469Z,98500.34
2023-02-22T14:06:05.726Z,98493.34
2023-02-22T14:08:34.447Z,98495.00
2023-02-22T14:11:05.931Z,98490.69
2023-02-22T14:13:55.630Z,98492.53
2023-02-22T14:16:25.949Z,98494.78
2023-02-22T14:19:06.521Z,98498.88
2023-02-22T14:21:37.697Z,98491.72
2023-02-22T14:24:16.164Z,98493.53
2023-02-22T14:27:03.450Z,98489.06
2023-02-22T14:29:31.745Z,98488.22
2023-02-22T14:32:06.699Z,98500.88
2023-02-22T14:34:54.597Z,98496.59
2023-02-22T14:37:26.358Z,98492.91
2023-02-22T14:39:57.925Z,98500.06
2023-02-22T14:42:27.925Z,98490.25
2023-02-22T14:45:02.577Z,98506.22
2023-02-22T14:48:00.918Z,98504.59
2023-02-22T14:50:43.806Z,98506.22
2023-02-22T14:53:11.460Z,98495.56
2023-02-22T14:55:56.415Z,98495.56
2023-02-22T14:58:30.730Z,98503.38
2023-02-22T15:00:58.638Z,98497.22
2023-02-22T15:03:37.421Z,98496.00
2023-02-22T15:06:15.901Z,98493.34
2023-02-22T15:08:48.632Z,98502.16
2023-02-22T15:11:25.134Z,98497.69
2023-02-22T15:13:54.928Z,98497.69
2023-02-22T15:16:24.703Z,98493.16
2023-02-22T15:19:03.651Z,98496.47
2023-02-22T15:21:32.152Z,98501.78
2023-02-22T15:24:07.718Z,98496.06
2023-02-22T15:26:42.540Z,98501.38
2023-02-22T15:29:30.954Z,98505.88
2023-02-22T15:31:58.536Z,98507.53
2023-02-22T15:34:31.281Z,98504.03
2023-02-22T15:37:29.069Z,98498.53
2023-02-22T15:40:14.362Z,98506.69
2023-02-22T15:42:58.306Z,98496.06
2023-02-22T15:45:28.109Z,98510.00
2023-02-22T15:47:56.295Z,98501.81
2023-02-22T15:50:33.890Z,98495.69
2023-02-22T15:53:01.667Z,98499.16
2023-02-22T15:55:32.846Z,98501.44
2023-02-22T15:58:10.752Z,98504.91
2023-02-22T16:01:10.995Z,98502.25
2023-02-22T16:03:48.090Z,98487.94
2023-02-22T16:06:24.674Z,98501.06
2023-02-22T16:08:55.546Z,98494.50
2023-02-22T16:11:35.124Z,98500.66
2023-02-22T16:14:06.619Z,98494.50
2023-02-22T16:16:37.047Z,98513.78
2023-02-22T16:19:26.728Z,98506.41
2023-02-22T16:22:02.913Z,98497.41
2023-02-22T16:24:33.878Z,98495.38
2023-02-22T16:27:11.016Z,98506.00
2023-02-22T16:29:38.669Z,98502.34
2023-02-22T16:32:06.264Z,98505.66
2023-02-22T16:34:34.713Z,98512.19
2023-02-22T16:37:02.120Z,98518.78
2023-02-22T16:39:31.797Z,98513.44
2023-02-22T16:42:01.903Z,98510.16
2023-02-22T16:44:29.659Z,98517.50
2023-02-22T16:47:00.700Z,98517.50
2023-02-22T16:49:28.373Z,98513.03
2023-02-22T16:52:01.178Z,98520.63
2023-02-22T16:54:34.253Z,98518.78
2023-02-22T16:57:04.041Z,98513.06
2023-02-22T16:59:36.860Z,98513.47
2023-02-22T17:02:07.556Z,98520.66
2023-02-22T17:04:35.260Z,98518.63
2023-02-22T17:07:05.138Z,98517.63
2023-02-22T17:09:33.272Z,98523.75
2023-02-22T17:12:02.210Z,98520.06
2023-02-22T17:14:33.534Z,98524.16
2023-02-22T17:17:00.742Z,98519.88
2023-02-22T17:19:28.338Z,98520.69
2023-02-22T17:21:55.648Z,98525.66
2023-02-22T17:24:29.317Z,98520.50
2023-02-22T17:26:59.160Z,98523.78
2023-02-22T17:29:28.013Z,98516.44
2023-02-22T17:31:55.505Z,98523.78
2023-02-22T17:34:23.229Z,98525.44
2023-02-22T17:36:50.597Z,98520.09
2023-02-22T17:39:18.187Z,98520.72
2023-02-22T17:41:45.621Z,98513.78
2023-02-22T17:44:13.419Z,98525.06
2023-02-22T17:46:41.245Z,98521.34
2023-02-22T17:49:08.960Z,98519.72
2023-02-22T17:51:39.918Z,98518.88
2023-02-22T17:54:09.008Z,98523.38
2023-02-22T17:56:36.725Z,98526.06
2023-02-22T17:59:04.276Z,98519.72
2023-02-22T18:01:32.273Z,98517.25
2023-02-22T18:04:02.015Z,98523.38
2023-02-22T18:06:30.615Z,98524.19
2023-02-22T18:09:00.224Z,98522.16
2023-02-22T18:11:32.412Z,98526.69
2023-02-22T18:14:00.105Z,98520.72
2023-02-22T18:16:27.958Z,98526.69
2023-02-22T18:18:56.293Z,98531.19
2023-02-22T18:21:24.209Z,98535.72
2023-02-22T18:23:52.289Z,98523.38
2023-02-22T18:26:21.114Z,98526.69
2023-02-22T18:28:49.179Z,98529.34
2023-02-22T18:31:20.237Z,98527.72
2023-02-22T18:33:50.551Z,98523.00
2023-02-22T18:36:22.790Z,98528.34
2023-02-22T18:38:55.420Z,98526.69
2023-02-22T18:41:25.190Z,98523.38
2023-02-22T18:43:57.462Z,98523.19
2023-02-22T18:46:25.453Z,98528.34
2023-02-22T18:48:55.208Z,98526.69
2023-02-22T18:51:24.786Z,98525.88
2023-02-22T18:53:59.831Z,98523.00
2023-02-22T18:56:30.056Z,98523.19
2023-02-22T18:59:02.007Z,98526.69
2023-02-22T19:01:34.693Z,98529.53
2023-02-22T19:04:02.404Z,98525.06
2023-02-22T19:06:30.350Z,98532.41
2023-02-22T19:09:01.238Z,98525.44
2023-02-22T19:11:29.052Z,98521.13
2023-02-22T19:13:58.476Z,98527.91
2023-02-22T19:16:27.421Z,98534.03
2023-02-22T19:18:58.776Z,98531.78
2023-02-22T19:21:28.310Z,98538.56
2023-02-22T19:23:56.313Z,98531.59
2023-02-22T19:26:27.533Z,98529.13
2023-02-22T19:28:56.885Z,98535.25
2023-02-22T19:31:31.529Z,98538.13
2023-02-22T19:34:09.094Z,98539.78
2023-02-22T19:36:39.613Z,98532.78
2023-02-22T19:39:10.107Z,98529.13
2023-02-22T19:41:40.332Z,98541.41
2023-02-22T19:44:08.145Z,98537.31
2023-02-22T19:46:37.201Z,98536.47
2023-02-22T19:49:06.380Z,98536.47
2023-02-22T19:51:34.366Z,98536.47
2023-02-22T19:54:05.172Z,98536.47
2023-02-22T19:56:35.421Z,98534.81
2023-02-22T19:59:09.448Z,98536.47
2023-02-22T20:01:37.504Z,98541.19
2023-02-22T20:04:06.388Z,98534.81
2023-02-22T20:06:40.146Z,98533.19
2023-02-22T20:09:11.115Z,98535.84
2023-02-22T20:11:38.805Z,98538.53
2023-02-22T20:14:06.575Z,98535.84
2023-02-22T20:16:35.239Z,98536.69
2023-02-22T20:19:02.927Z,98536.03
2023-02-22T20:21:33.437Z,98530.94
2023-02-22T20:24:07.538Z,98531.13
2023-02-22T20:26:36.813Z,98538.94
2023-02-22T20:29:06.345Z,98533.59
2023-02-22T20:31:34.072Z,98539.75
2023-02-22T20:34:06.288Z,98539.75
2023-02-22T20:36:36.929Z,98531.94
2023-02-22T20:39:13.975Z,98538.09
2023-02-22T20:41:43.874Z,98547.09
2023-02-22T20:44:14.549Z,98543.63
2023-02-22T20:46:42.887Z,98547.91
2023-02-22T20:49:17.234Z,98558.97
2023-02-22T20:51:45.829Z,98551.63
2023-02-22T20:54:13.743Z,98551.81
2023-02-22T20:56:43.568Z,98559.78
2023-02-22T20:59:13.436Z,98551.81
2023-02-22T21:01:40.909Z,98557.94
2023-02-22T21:04:13.456Z,98555.28
2023-02-22T21:06:41.561Z,98548.31
2023-02-22T21:09:14.103Z,98557.31
2023-02-22T21:11:42.767Z,98551.97
2023-02-22T21:14:16.687Z,98555.69
2023-02-22T21:16:48.517Z,98553.03
2023-02-22T21:19:27.960Z,98551.97
2023-02-22T21:21:57.874Z,98561.81
2023-02-22T21:24:27.178Z,98549.50
2023-02-22T21:26:58.483Z,98552.38
2023-02-22T21:29:27.490Z,98552.38
2023-02-22T21:31:55.129Z,98557.72
2023-02-22T21:34:22.840Z,98549.72
2023-02-22T21:36:52.416Z,98549.09
2023-02-22T21:39:20.397Z,98539.25
2023-02-22T21:41:50.543Z,98539.25
2023-02-22T21:44:18.912Z,98533.13
2023-02-22T21:46:49.766Z,98534.13
2023-02-22T21:49:18.400Z,98535.16
2023-02-22T21:51:45.735Z,98533.50
2023-02-22T21:54:13.706Z,98533.50
2023-02-22T21:56:42.741Z,98521.22
2023-02-22T21:59:13.646Z,98527.53
2023-02-22T22:01:47.172Z,98526.94
2023-02-22T22:04:20.980Z,98524.28
2023-02-22T22:06:50.994Z,98523.25
2023-02-22T22:09:19.720Z,98525.28
2023-02-22T22:12:01.386Z,98524.28
2023-02-22T22:14:28.915Z,98519.97
2023-02-22T22:16:58.607Z,98523.66
2023-02-22T22:19:29.235Z,98519.31
2023-02-22T22:21:57.735Z,98520.13
2023-02-22T22:24:28.594Z,98516.47
2023-02-22T22:26:56.163Z,98521.00
2023-02-22T22:29:28.523Z,98513.00
2023-02-22T22:31:56.447Z,98518.31
2023-02-22T22:34:24.280Z,98517.47
2023-02-22T22:36:51.614Z,98522.00
2023-02-22T22:39:20.877Z,98518.31
2023-02-22T22:41:48.159Z,98518.69
2023-02-22T22:44:22.027Z,98515.84
2023-02-22T22:46:53.476Z,98520.34
2023-02-22T22:49:23.272Z,98515.03
2023-02-22T22:51:51.091Z,98517.69
2023-02-22T22:54:18.539Z,98524.84
2023-02-22T22:56:46.457Z,98515.03
2023-02-22T22:59:14.026Z,98513.38
2023-02-22T23:01:46.936Z,98519.72
2023-02-22T23:04:16.689Z,98518.69
2023-02-22T23:06:50.482Z,98517.06
2023-02-22T23:09:24.033Z,98517.88
2023-02-22T23:11:53.900Z,98501.91
2023-02-22T23:14:31.729Z,98511.75
2023-02-22T23:17:03.348Z,98513.38
2023-02-22T23:19:31.679Z,98511.75
2023-02-22T23:21:59.394Z,98503.75
2023-02-22T23:24:27.506Z,98504.56
2023-02-22T23:26:59.863Z,98509.06
2023-02-22T23:29:32.244Z,98512.97
2023-02-22T23:31:59.760Z,98506.78
2023-02-22T23:34:28.940Z,98511.13
2023-02-22T23:36:56.274Z,98513.78
2023-02-22T23:39:24.312Z,98506.59
2023-02-22T23:41:53.379Z,98504.13
2023-02-22T23:44:22.069Z,98497.16
2023-02-22T23:46:54.991Z,98496.13
2023-02-22T23:49:25.261Z,98503.31
2023-02-22T23:51:53.263Z,98508.44
2023-02-22T23:54:21.533Z,98505.16
2023-02-22T23:56:58.170Z,98500.84
2023-02-22T23:59:28.051Z,98499.03
